sensor_id;sensor_type;location;lat;lon;timestamp;P1;durP1;ratioP1;P2;durP2;ratioP2
15049;SDS011;7622;42.724;23.250;2024-02-23T00:00:56;6.93;;;6.23;;
15049;SDS011;7622;42.724;23.250;2024-02-23T00:03:23;7.47;;;6.13;;
15049;SDS011;7622;42.724;23.250;2024-02-23T00:05:49;7.97;;;6.77;;
15049;SDS011;7622;42.724;23.250;2024-02-23T00:08:16;9.30;;;6.83;;
15049;SDS011;7622;42.724;23.250;2024-02-23T00:10:44;9.77;;;6.23;;
15049;SDS011;7622;42.724;23.250;2024-02-23T00:13:12;12.40;;;8.07;;
15049;SDS011;7622;42.724;23.250;2024-02-23T00:15:39;8.70;;;7.83;;
15049;SDS011;7622;42.724;23.250;2024-02-23T00:18:05;11.20;;;8.60;;
15049;SDS011;7622;42.724;23.250;2024-02-23T00:20:33;12.43;;;7.37;;
15049;SDS011;7622;42.724;23.250;2024-02-23T00:22:59;9.17;;;7.30;;
15049;SDS011;7622;42.724;23.250;2024-02-23T00:25:26;10.17;;;7.73;;
15049;SDS011;7622;42.724;23.250;2024-02-23T00:27:53;9.20;;;7.47;;
15049;SDS011;7622;42.724;23.250;2024-02-23T00:30:21;8.13;;;7.27;;
15049;SDS011;7622;42.724;23.250;2024-02-23T00:32:47;7.80;;;6.73;;
15049;SDS011;7622;42.724;23.250;2024-02-23T00:35:14;8.23;;;6.43;;
15049;SDS011;7622;42.724;23.250;2024-02-23T00:37:42;8.17;;;6.63;;
15049;SDS011;7622;42.724;23.250;2024-02-23T00:40:10;6.73;;;6.13;;
15049;SDS011;7622;42.724;23.250;2024-02-23T00:42:38;8.23;;;6.60;;
15049;SDS011;7622;42.724;23.250;2024-02-23T00:45:05;7.53;;;6.83;;
15049;SDS011;7622;42.724;23.250;2024-02-23T00:47:34;8.77;;;6.03;;
15049;SDS011;7622;42.724;23.250;2024-02-23T00:50:02;7.00;;;5.50;;
15049;SDS011;7622;42.724;23.250;2024-02-23T00:52:28;8.40;;;7.37;;
15049;SDS011;7622;42.724;23.250;2024-02-23T00:54:55;15.57;;;9.20;;
15049;SDS011;7622;42.724;23.250;2024-02-23T00:57:22;6.57;;;5.90;;
15049;SDS011;7622;42.724;23.250;2024-02-23T00:59:55;7.73;;;6.00;;
15049;SDS011;7622;42.724;23.250;2024-02-23T01:02:23;6.97;;;6.27;;
15049;SDS011;7622;42.724;23.250;2024-02-23T01:04:51;6.60;;;5.90;;
15049;SDS011;7622;42.724;23.250;2024-02-23T01:07:21;6.87;;;6.23;;
15049;SDS011;7622;42.724;23.250;2024-02-23T01:09:48;6.77;;;6.10;;
15049;SDS011;7622;42.724;23.250;2024-02-23T01:12:15;8.60;;;6.40;;
15049;SDS011;7622;42.724;23.250;2024-02-23T01:14:41;6.87;;;6.17;;
15049;SDS011;7622;42.724;23.250;2024-02-23T01:17:08;8.67;;;7.07;;
15049;SDS011;7622;42.724;23.250;2024-02-23T01:19:35;7.80;;;6.17;;
15049;SDS011;7622;42.724;23.250;2024-02-23T01:22:03;7.00;;;6.23;;
15049;SDS011;7622;42.724;23.250;2024-02-23T01:24:29;7.77;;;6.97;;
15049;SDS011;7622;42.724;23.250;2024-02-23T01:26:57;6.50;;;5.90;;
15049;SDS011;7622;42.724;23.250;2024-02-23T01:29:25;7.13;;;6.30;;
15049;SDS011;7622;42.724;23.250;2024-02-23T01:31:52;6.43;;;5.80;;
15049;SDS011;7622;42.724;23.250;2024-02-23T01:34:19;8.53;;;5.77;;
15049;SDS011;7622;42.724;23.250;2024-02-23T01:36:46;6.80;;;6.20;;
15049;SDS011;7622;42.724;23.250;2024-02-23T01:39:14;6.20;;;5.60;;
15049;SDS011;7622;42.724;23.250;2024-02-23T01:41:41;6.93;;;6.20;;
15049;SDS011;7622;42.724;23.250;2024-02-23T01:44:09;7.80;;;6.77;;
15049;SDS011;7622;42.724;23.250;2024-02-23T01:46:35;6.70;;;5.53;;
15049;SDS011;7622;42.724;23.250;2024-02-23T01:49:03;7.20;;;6.00;;
15049;SDS011;7622;42.724;23.250;2024-02-23T01:51:32;6.70;;;5.80;;
15049;SDS011;7622;42.724;23.250;2024-02-23T01:54:00;6.30;;;5.70;;
15049;SDS011;7622;42.724;23.250;2024-02-23T01:56:31;7.23;;;6.53;;
15049;SDS011;7622;42.724;23.250;2024-02-23T01:59:01;6.90;;;6.20;;
15049;SDS011;7622;42.724;23.250;2024-02-23T02:01:29;7.33;;;6.23;;
15049;SDS011;7622;42.724;23.250;2024-02-23T02:03:56;7.83;;;6.53;;
15049;SDS011;7622;42.724;23.250;2024-02-23T02:06:24;9.13;;;7.20;;
15049;SDS011;7622;42.724;23.250;2024-02-23T02:08:51;6.90;;;6.03;;
15049;SDS011;7622;42.724;23.250;2024-02-23T02:11:19;13.97;;;8.53;;
15049;SDS011;7622;42.724;23.250;2024-02-23T02:13:47;7.67;;;6.17;;
15049;SDS011;7622;42.724;23.250;2024-02-23T02:16:13;7.87;;;6.23;;
15049;SDS011;7622;42.724;23.250;2024-02-23T02:18:40;8.03;;;6.67;;
15049;SDS011;7622;42.724;23.250;2024-02-23T02:21:07;9.10;;;6.43;;
15049;SDS011;7622;42.724;23.250;2024-02-23T02:23:33;9.37;;;7.97;;
15049;SDS011;7622;42.724;23.250;2024-02-23T02:26:02;9.00;;;7.50;;
15049;SDS011;7622;42.724;23.250;2024-02-23T02:28:29;9.97;;;7.90;;
15049;SDS011;7622;42.724;23.250;2024-02-23T02:30:57;10.10;;;8.50;;
15049;SDS011;7622;42.724;23.250;2024-02-23T02:33:24;11.20;;;9.93;;
15049;SDS011;7622;42.724;23.250;2024-02-23T02:35:51;13.13;;;9.37;;
15049;SDS011;7622;42.724;23.250;2024-02-23T02:38:18;10.10;;;7.70;;
15049;SDS011;7622;42.724;23.250;2024-02-23T02:40:47;10.90;;;8.87;;
15049;SDS011;7622;42.724;23.250;2024-02-23T02:43:16;11.10;;;9.33;;
15049;SDS011;7622;42.724;23.250;2024-02-23T02:45:43;12.90;;;9.23;;
15049;SDS011;7622;42.724;23.250;2024-02-23T02:48:11;12.10;;;8.50;;
15049;SDS011;7622;42.724;23.250;2024-02-23T02:50:38;9.27;;;7.70;;
15049;SDS011;7622;42.724;23.250;2024-02-23T02:53:05;9.83;;;7.60;;
15049;SDS011;7622;42.724;23.250;2024-02-23T02:55:31;8.53;;;7.60;;
15049;SDS011;7622;42.724;23.250;2024-02-23T02:57:58;12.80;;;9.00;;
15049;SDS011;7622;42.724;23.250;2024-02-23T03:00:25;9.33;;;8.17;;
15049;SDS011;7622;42.724;23.250;2024-02-23T03:02:51;8.97;;;8.00;;
15049;SDS011;7622;42.724;23.250;2024-02-23T03:05:19;9.73;;;8.70;;
15049;SDS011;7622;42.724;23.250;2024-02-23T03:07:46;10.90;;;8.00;;
15049;SDS011;7622;42.724;23.250;2024-02-23T03:10:13;10.73;;;8.07;;
15049;SDS011;7622;42.724;23.250;2024-02-23T03:12:40;8.90;;;8.00;;
15049;SDS011;7622;42.724;23.250;2024-02-23T03:15:07;10.47;;;9.23;;
15049;SDS011;7622;42.724;23.250;2024-02-23T03:17:35;8.83;;;7.90;;
15049;SDS011;7622;42.724;23.250;2024-02-23T03:20:02;8.83;;;7.67;;
15049;SDS011;7622;42.724;23.250;2024-02-23T03:22:33;8.27;;;7.17;;
15049;SDS011;7622;42.724;23.250;2024-02-23T03:25:00;8.30;;;7.43;;
15049;SDS011;7622;42.724;23.250;2024-02-23T03:27:33;8.70;;;7.67;;
15049;SDS011;7622;42.724;23.250;2024-02-23T03:30:00;8.67;;;6.93;;
15049;SDS011;7622;42.724;23.250;2024-02-23T03:32:27;11.17;;;8.13;;
15049;SDS011;7622;42.724;23.250;2024-02-23T03:34:53;8.77;;;7.00;;
15049;SDS011;7622;42.724;23.250;2024-02-23T03:37:20;9.97;;;7.80;;
15049;SDS011;7622;42.724;23.250;2024-02-23T03:39:48;9.40;;;7.80;;
15049;SDS011;7622;42.724;23.250;2024-02-23T03:42:14;9.43;;;8.07;;
15049;SDS011;7622;42.724;23.250;2024-02-23T03:44:41;9.73;;;7.50;;
15049;SDS011;7622;42.724;23.250;2024-02-23T03:47:08;9.40;;;8.40;;
15049;SDS011;7622;42.724;23.250;2024-02-23T03:49:35;11.50;;;8.60;;
15049;SDS011;7622;42.724;23.250;2024-02-23T03:52:02;10.77;;;7.97;;
15049;SDS011;7622;42.724;23.250;2024-02-23T03:54:29;10.23;;;8.77;;
15049;SDS011;7622;42.724;23.250;2024-02-23T03:56:58;9.93;;;8.23;;
15049;SDS011;7622;42.724;23.250;2024-02-23T03:59:25;10.03;;;7.90;;
15049;SDS011;7622;42.724;23.250;2024-02-23T04:01:52;11.23;;;7.90;;
15049;SDS011;7622;42.724;23.250;2024-02-23T04:04:19;11.13;;;7.73;;
15049;SDS011;7622;42.724;23.250;2024-02-23T04:06:45;8.63;;;7.60;;
15049;SDS011;7622;42.724;23.250;2024-02-23T04:09:12;8.60;;;7.70;;
15049;SDS011;7622;42.724;23.250;2024-02-23T04:11:39;12.27;;;7.73;;
15049;SDS011;7622;42.724;23.250;2024-02-23T04:14:07;11.03;;;7.90;;
15049;SDS011;7622;42.724;23.250;2024-02-23T04:16:36;9.73;;;7.93;;
15049;SDS011;7622;42.724;23.250;2024-02-23T04:19:03;9.57;;;7.50;;
15049;SDS011;7622;42.724;23.250;2024-02-23T04:21:29;10.60;;;8.40;;
15049;SDS011;7622;42.724;23.250;2024-02-23T04:23:56;9.57;;;8.43;;
15049;SDS011;7622;42.724;23.250;2024-02-23T04:26:23;15.60;;;11.63;;
15049;SDS011;7622;42.724;23.250;2024-02-23T04:28:49;13.27;;;9.33;;
15049;SDS011;7622;42.724;23.250;2024-02-23T04:31:18;8.77;;;7.87;;
15049;SDS011;7622;42.724;23.250;2024-02-23T04:33:44;9.53;;;8.20;;
15049;SDS011;7622;42.724;23.250;2024-02-23T04:36:14;9.17;;;7.40;;
15049;SDS011;7622;42.724;23.250;2024-02-23T04:38:46;12.77;;;9.37;;
15049;SDS011;7622;42.724;23.250;2024-02-23T04:41:13;11.47;;;8.47;;
15049;SDS011;7622;42.724;23.250;2024-02-23T04:43:39;10.80;;;8.50;;
15049;SDS011;7622;42.724;23.250;2024-02-23T04:46:06;9.20;;;7.10;;
15049;SDS011;7622;42.724;23.250;2024-02-23T04:48:34;11.03;;;8.63;;
15049;SDS011;7622;42.724;23.250;2024-02-23T04:51:01;14.43;;;9.43;;
15049;SDS011;7622;42.724;23.250;2024-02-23T04:53:28;12.07;;;8.73;;
15049;SDS011;7622;42.724;23.250;2024-02-23T04:55:54;8.83;;;7.73;;
15049;SDS011;7622;42.724;23.250;2024-02-23T04:58:21;12.80;;;9.97;;
15049;SDS011;7622;42.724;23.250;2024-02-23T05:00:48;12.97;;;9.50;;
15049;SDS011;7622;42.724;23.250;2024-02-23T05:03:15;13.17;;;8.23;;
15049;SDS011;7622;42.724;23.250;2024-02-23T05:05:43;10.23;;;8.80;;
15049;SDS011;7622;42.724;23.250;2024-02-23T05:08:09;13.93;;;8.73;;
15049;SDS011;7622;42.724;23.250;2024-02-23T05:10:36;13.87;;;8.97;;
15049;SDS011;7622;42.724;23.250;2024-02-23T05:13:03;15.30;;;10.23;;
15049;SDS011;7622;42.724;23.250;2024-02-23T05:15:30;19.30;;;10.03;;
15049;SDS011;7622;42.724;23.250;2024-02-23T05:17:56;12.73;;;9.90;;
15049;SDS011;7622;42.724;23.250;2024-02-23T05:20:23;14.23;;;9.80;;
15049;SDS011;7622;42.724;23.250;2024-02-23T05:22:51;14.33;;;9.40;;
15049;SDS011;7622;42.724;23.250;2024-02-23T05:25:18;13.60;;;10.50;;
15049;SDS011;7622;42.724;23.250;2024-02-23T05:27:44;13.53;;;10.63;;
15049;SDS011;7622;42.724;23.250;2024-02-23T05:30:12;13.73;;;9.33;;
15049;SDS011;7622;42.724;23.250;2024-02-23T05:32:42;14.67;;;10.43;;
15049;SDS011;7622;42.724;23.250;2024-02-23T05:35:12;17.60;;;10.47;;
15049;SDS011;7622;42.724;23.250;2024-02-23T05:37:38;17.80;;;10.47;;
15049;SDS011;7622;42.724;23.250;2024-02-23T05:40:07;11.10;;;8.87;;
15049;SDS011;7622;42.724;23.250;2024-02-23T05:42:35;14.90;;;9.63;;
15049;SDS011;7622;42.724;23.250;2024-02-23T05:45:02;17.23;;;10.47;;
15049;SDS011;7622;42.724;23.250;2024-02-23T05:47:29;14.30;;;10.23;;
15049;SDS011;7622;42.724;23.250;2024-02-23T05:49:56;14.77;;;10.50;;
15049;SDS011;7622;42.724;23.250;2024-02-23T05:52:23;12.57;;;9.67;;
15049;SDS011;7622;42.724;23.250;2024-02-23T05:54:49;12.20;;;10.10;;
15049;SDS011;7622;42.724;23.250;2024-02-23T05:57:19;14.53;;;10.03;;
15049;SDS011;7622;42.724;23.250;2024-02-23T05:59:48;13.27;;;9.70;;
15049;SDS011;7622;42.724;23.250;2024-02-23T06:02:17;11.63;;;9.20;;
15049;SDS011;7622;42.724;23.250;2024-02-23T06:04:44;18.57;;;12.30;;
15049;SDS011;7622;42.724;23.250;2024-02-23T06:07:10;15.13;;;11.57;;
15049;SDS011;7622;42.724;23.250;2024-02-23T06:09:37;15.73;;;12.20;;
15049;SDS011;7622;42.724;23.250;2024-02-23T06:12:07;21.73;;;12.80;;
15049;SDS011;7622;42.724;23.250;2024-02-23T06:14:38;18.83;;;12.20;;
15049;SDS011;7622;42.724;23.250;2024-02-23T06:17:05;20.53;;;12.90;;
15049;SDS011;7622;42.724;23.250;2024-02-23T06:19:32;21.40;;;13.83;;
15049;SDS011;7622;42.724;23.250;2024-02-23T06:22:00;17.37;;;12.93;;
15049;SDS011;7622;42.724;23.250;2024-02-23T06:24:27;16.13;;;11.43;;
15049;SDS011;7622;42.724;23.250;2024-02-23T06:26:54;25.23;;;11.73;;
15049;SDS011;7622;42.724;23.250;2024-02-23T06:29:23;18.10;;;11.50;;
15049;SDS011;7622;42.724;23.250;2024-02-23T06:31:51;17.03;;;11.83;;
15049;SDS011;7622;42.724;23.250;2024-02-23T06:34:17;14.67;;;10.47;;
15049;SDS011;7622;42.724;23.250;2024-02-23T06:36:44;18.10;;;11.57;;
15049;SDS011;7622;42.724;23.250;2024-02-23T06:39:12;18.60;;;11.67;;
15049;SDS011;7622;42.724;23.250;2024-02-23T06:41:43;14.37;;;10.80;;
15049;SDS011;7622;42.724;23.250;2024-02-23T06:44:10;13.23;;;10.43;;
15049;SDS011;7622;42.724;23.250;2024-02-23T06:46:36;24.00;;;11.33;;
15049;SDS011;7622;42.724;23.250;2024-02-23T06:49:04;17.90;;;11.37;;
15049;SDS011;7622;42.724;23.250;2024-02-23T06:51:31;16.27;;;11.00;;
15049;SDS011;7622;42.724;23.250;2024-02-23T06:53:58;22.77;;;11.33;;
15049;SDS011;7622;42.724;23.250;2024-02-23T06:56:24;15.77;;;10.67;;
15049;SDS011;7622;42.724;23.250;2024-02-23T06:58:51;15.30;;;10.37;;
15049;SDS011;7622;42.724;23.250;2024-02-23T07:01:19;16.50;;;9.80;;
15049;SDS011;7622;42.724;23.250;2024-02-23T07:03:46;16.30;;;9.83;;
15049;SDS011;7622;42.724;23.250;2024-02-23T07:06:17;10.53;;;9.43;;
15049;SDS011;7622;42.724;23.250;2024-02-23T07:08:44;20.30;;;10.30;;
15049;SDS011;7622;42.724;23.250;2024-02-23T07:11:11;16.10;;;10.10;;
15049;SDS011;7622;42.724;23.250;2024-02-23T07:13:38;12.23;;;9.60;;
15049;SDS011;7622;42.724;23.250;2024-02-23T07:16:06;16.07;;;11.50;;
15049;SDS011;7622;42.724;23.250;2024-02-23T07:18:32;16.83;;;10.90;;
15049;SDS011;7622;42.724;23.250;2024-02-23T07:20:59;17.17;;;10.80;;
15049;SDS011;7622;42.724;23.250;2024-02-23T07:23:28;15.37;;;10.40;;
15049;SDS011;7622;42.724;23.250;2024-02-23T07:25:54;19.37;;;11.47;;
15049;SDS011;7622;42.724;23.250;2024-02-23T07:28:21;17.63;;;11.07;;
15049;SDS011;7622;42.724;23.250;2024-02-23T07:30:48;15.97;;;11.57;;
15049;SDS011;7622;42.724;23.250;2024-02-23T07:33:14;29.03;;;11.87;;
15049;SDS011;7622;42.724;23.250;2024-02-23T07:35:41;15.10;;;11.87;;
15049;SDS011;7622;42.724;23.250;2024-02-23T07:38:08;20.13;;;12.90;;
15049;SDS011;7622;42.724;23.250;2024-02-23T07:40:36;17.67;;;13.10;;
15049;SDS011;7622;42.724;23.250;2024-02-23T07:43:03;18.63;;;13.77;;
15049;SDS011;7622;42.724;23.250;2024-02-23T07:45:29;18.20;;;13.73;;
15049;SDS011;7622;42.724;23.250;2024-02-23T07:47:58;19.23;;;13.60;;
15049;SDS011;7622;42.724;23.250;2024-02-23T07:50:25;23.90;;;13.53;;
15049;SDS011;7622;42.724;23.250;2024-02-23T07:52:52;20.37;;;14.67;;
15049;SDS011;7622;42.724;23.250;2024-02-23T07:55:18;18.00;;;14.50;;
15049;SDS011;7622;42.724;23.250;2024-02-23T07:57:46;22.53;;;14.63;;
15049;SDS011;7622;42.724;23.250;2024-02-23T08:00:13;19.23;;;14.80;;
15049;SDS011;7622;42.724;23.250;2024-02-23T08:02:40;21.20;;;14.17;;
15049;SDS011;7622;42.724;23.250;2024-02-23T08:05:07;20.53;;;14.63;;
15049;SDS011;7622;42.724;23.250;2024-02-23T08:07:35;22.30;;;14.23;;
15049;SDS011;7622;42.724;23.250;2024-02-23T08:10:01;22.30;;;16.13;;
15049;SDS011;7622;42.724;23.250;2024-02-23T08:12:30;27.17;;;15.50;;
15049;SDS011;7622;42.724;23.250;2024-02-23T08:14:58;20.00;;;15.13;;
15049;SDS011;7622;42.724;23.250;2024-02-23T08:17:24;24.40;;;17.23;;
15049;SDS011;7622;42.724;23.250;2024-02-23T08:19:51;19.90;;;15.53;;
15049;SDS011;7622;42.724;23.250;2024-02-23T08:22:18;28.03;;;17.43;;
15049;SDS011;7622;42.724;23.250;2024-02-23T08:24:45;29.87;;;17.07;;
15049;SDS011;7622;42.724;23.250;2024-02-23T08:27:11;26.27;;;17.23;;
15049;SDS011;7622;42.724;23.250;2024-02-23T08:29:38;25.77;;;15.73;;
15049;SDS011;7622;42.724;23.250;2024-02-23T08:32:06;16.90;;;13.93;;
15049;SDS011;7622;42.724;23.250;2024-02-23T08:34:33;24.00;;;14.47;;
15049;SDS011;7622;42.724;23.250;2024-02-23T08:37:00;23.23;;;14.73;;
15049;SDS011;7622;42.724;23.250;2024-02-23T08:39:27;21.40;;;14.23;;
15049;SDS011;7622;42.724;23.250;2024-02-23T08:41:54;25.27;;;13.03;;
15049;SDS011;7622;42.724;23.250;2024-02-23T08:44:21;19.73;;;13.70;;
15049;SDS011;7622;42.724;23.250;2024-02-23T08:46:47;15.67;;;12.17;;
15049;SDS011;7622;42.724;23.250;2024-02-23T08:49:15;14.47;;;11.50;;
15049;SDS011;7622;42.724;23.250;2024-02-23T08:51:42;10.07;;;9.00;;
15049;SDS011;7622;42.724;23.250;2024-02-23T08:54:09;13.33;;;9.60;;
15049;SDS011;7622;42.724;23.250;2024-02-23T08:56:36;11.87;;;8.80;;
15049;SDS011;7622;42.724;23.250;2024-02-23T08:59:03;7.47;;;6.20;;
15049;SDS011;7622;42.724;23.250;2024-02-23T09:01:30;6.17;;;4.90;;
15049;SDS011;7622;42.724;23.250;2024-02-23T09:03:57;5.83;;;4.77;;
15049;SDS011;7622;42.724;23.250;2024-02-23T09:06:25;8.30;;;5.07;;
15049;SDS011;7622;42.724;23.250;2024-02-23T09:08:51;5.70;;;4.70;;
15049;SDS011;7622;42.724;23.250;2024-02-23T09:11:18;5.33;;;4.53;;
15049;SDS011;7622;42.724;23.250;2024-02-23T09:13:45;7.43;;;5.00;;
15049;SDS011;7622;42.724;23.250;2024-02-23T09:16:11;5.10;;;4.70;;
15049;SDS011;7622;42.724;23.250;2024-02-23T09:18:40;6.57;;;3.87;;
15049;SDS011;7622;42.724;23.250;2024-02-23T09:21:07;3.70;;;3.40;;
15049;SDS011;7622;42.724;23.250;2024-02-23T09:23:35;3.13;;;2.93;;
15049;SDS011;7622;42.724;23.250;2024-02-23T09:26:01;5.77;;;3.50;;
15049;SDS011;7622;42.724;23.250;2024-02-23T09:28:34;4.50;;;4.20;;
15049;SDS011;7622;42.724;23.250;2024-02-23T09:31:01;9.60;;;4.47;;
15049;SDS011;7622;42.724;23.250;2024-02-23T09:33:28;4.17;;;3.87;;
15049;SDS011;7622;42.724;23.250;2024-02-23T09:35:55;3.40;;;3.20;;
15049;SDS011;7622;42.724;23.250;2024-02-23T09:38:21;8.03;;;2.90;;
15049;SDS011;7622;42.724;23.250;2024-02-23T09:40:51;2.60;;;2.40;;
15049;SDS011;7622;42.724;23.250;2024-02-23T09:43:17;2.83;;;2.63;;
15049;SDS011;7622;42.724;23.250;2024-02-23T09:45:47;3.50;;;2.20;;
15049;SDS011;7622;42.724;23.250;2024-02-23T09:48:17;3.77;;;2.03;;
15049;SDS011;7622;42.724;23.250;2024-02-23T09:50:45;3.37;;;3.17;;
15049;SDS011;7622;42.724;23.250;2024-02-23T09:53:13;2.87;;;2.67;;
15049;SDS011;7622;42.724;23.250;2024-02-23T09:55:40;5.33;;;2.30;;
15049;SDS011;7622;42.724;23.250;2024-02-23T09:58:10;2.20;;;2.10;;
15049;SDS011;7622;42.724;23.250;2024-02-23T10:00:41;2.77;;;2.57;;
15049;SDS011;7622;42.724;23.250;2024-02-23T10:03:07;3.20;;;2.43;;
15049;SDS011;7622;42.724;23.250;2024-02-23T10:05:35;3.73;;;2.80;;
15049;SDS011;7622;42.724;23.250;2024-02-23T10:08:01;3.10;;;2.30;;
15049;SDS011;7622;42.724;23.250;2024-02-23T10:10:29;3.13;;;2.27;;
15049;SDS011;7622;42.724;23.250;2024-02-23T10:12:56;2.27;;;2.17;;
15049;SDS011;7622;42.724;23.250;2024-02-23T10:15:25;2.70;;;2.50;;
15049;SDS011;7622;42.724;23.250;2024-02-23T10:17:57;2.50;;;2.30;;
15049;SDS011;7622;42.724;23.250;2024-02-23T10:20:26;2.80;;;2.60;;
15049;SDS011;7622;42.724;23.250;2024-02-23T10:22:53;2.40;;;2.30;;
15049;SDS011;7622;42.724;23.250;2024-02-23T10:25:20;2.63;;;2.43;;
15049;SDS011;7622;42.724;23.250;2024-02-23T10:27:47;2.77;;;2.57;;
15049;SDS011;7622;42.724;23.250;2024-02-23T10:30:14;2.67;;;2.47;;
15049;SDS011;7622;42.724;23.250;2024-02-23T10:32:42;2.10;;;2.00;;
15049;SDS011;7622;42.724;23.250;2024-02-23T10:35:10;2.10;;;1.90;;
15049;SDS011;7622;42.724;23.250;2024-02-23T10:37:41;2.83;;;2.57;;
15049;SDS011;7622;42.724;23.250;2024-02-23T10:40:09;2.57;;;2.37;;
15049;SDS011;7622;42.724;23.250;2024-02-23T10:42:38;2.40;;;2.30;;
15049;SDS011;7622;42.724;23.250;2024-02-23T10:45:07;3.13;;;2.13;;
15049;SDS011;7622;42.724;23.250;2024-02-23T10:47:34;4.23;;;2.17;;
15049;SDS011;7622;42.724;23.250;2024-02-23T10:50:04;3.50;;;2.07;;
15049;SDS011;7622;42.724;23.250;2024-02-23T10:52:33;2.43;;;2.23;;
15049;SDS011;7622;42.724;23.250;2024-02-23T10:55:00;2.43;;;2.23;;
15049;SDS011;7622;42.724;23.250;2024-02-23T10:57:29;8.03;;;1.93;;
15049;SDS011;7622;42.724;23.250;2024-02-23T10:59:56;4.10;;;2.53;;
15049;SDS011;7622;42.724;23.250;2024-02-23T11:02:23;2.50;;;2.03;;
15049;SDS011;7622;42.724;23.250;2024-02-23T11:04:53;4.83;;;2.60;;
15049;SDS011;7622;42.724;23.250;2024-02-23T11:07:23;2.17;;;2.07;;
15049;SDS011;7622;42.724;23.250;2024-02-23T11:09:51;2.43;;;2.33;;
15049;SDS011;7622;42.724;23.250;2024-02-23T11:12:22;3.43;;;2.27;;
15049;SDS011;7622;42.724;23.250;2024-02-23T11:14:50;3.27;;;2.40;;
15049;SDS011;7622;42.724;23.250;2024-02-23T11:17:17;2.13;;;2.03;;
15049;SDS011;7622;42.724;23.250;2024-02-23T11:19:45;2.50;;;2.30;;
15049;SDS011;7622;42.724;23.250;2024-02-23T11:22:15;2.40;;;2.30;;
15049;SDS011;7622;42.724;23.250;2024-02-23T11:24:52;2.77;;;2.20;;
15049;SDS011;7622;42.724;23.250;2024-02-23T11:27:19;2.20;;;2.00;;
15049;SDS011;7622;42.724;23.250;2024-02-23T11:29:46;2.63;;;2.43;;
15049;SDS011;7622;42.724;23.250;2024-02-23T11:32:14;2.33;;;2.10;;
15049;SDS011;7622;42.724;23.250;2024-02-23T11:34:41;2.83;;;2.17;;
15049;SDS011;7622;42.724;23.250;2024-02-23T11:37:09;2.10;;;2.00;;
15049;SDS011;7622;42.724;23.250;2024-02-23T11:39:38;2.30;;;2.10;;
15049;SDS011;7622;42.724;23.250;2024-02-23T11:42:05;2.13;;;1.90;;
15049;SDS011;7622;42.724;23.250;2024-02-23T11:44:33;2.57;;;2.07;;
15049;SDS011;7622;42.724;23.250;2024-02-23T11:47:00;2.60;;;2.00;;
15049;SDS011;7622;42.724;23.250;2024-02-23T11:49:27;3.20;;;1.90;;
15049;SDS011;7622;42.724;23.250;2024-02-23T11:51:54;2.20;;;2.00;;
15049;SDS011;7622;42.724;23.250;2024-02-23T11:54:21;2.37;;;2.20;;
15049;SDS011;7622;42.724;23.250;2024-02-23T11:56:50;2.03;;;1.93;;
15049;SDS011;7622;42.724;23.250;2024-02-23T11:59:17;3.30;;;1.90;;
15049;SDS011;7622;42.724;23.250;2024-02-23T12:01:45;2.10;;;2.00;;
15049;SDS011;7622;42.724;23.250;2024-02-23T12:04:12;2.07;;;1.97;;
15049;SDS011;7622;42.724;23.250;2024-02-23T12:06:41;2.40;;;1.90;;
15049;SDS011;7622;42.724;23.250;2024-02-23T12:09:08;2.07;;;1.87;;
15049;SDS011;7622;42.724;23.250;2024-02-23T12:11:36;2.50;;;2.10;;
15049;SDS011;7622;42.724;23.250;2024-02-23T12:14:04;2.30;;;2.10;;
15049;SDS011;7622;42.724;23.250;2024-02-23T12:16:32;2.33;;;2.13;;
15049;SDS011;7622;42.724;23.250;2024-02-23T12:19:00;2.53;;;2.00;;
15049;SDS011;7622;42.724;23.250;2024-02-23T12:21:28;3.13;;;2.07;;
15049;SDS011;7622;42.724;23.250;2024-02-23T12:23:55;3.00;;;1.63;;
15049;SDS011;7622;42.724;23.250;2024-02-23T12:26:21;2.23;;;2.00;;
15049;SDS011;7622;42.724;23.250;2024-02-23T12:28:48;2.00;;;1.90;;
15049;SDS011;7622;42.724;23.250;2024-02-23T12:31:16;4.67;;;2.20;;
15049;SDS011;7622;42.724;23.250;2024-02-23T12:33:50;4.93;;;2.23;;
15049;SDS011;7622;42.724;23.250;2024-02-23T12:36:17;3.00;;;2.03;;
15049;SDS011;7622;42.724;23.250;2024-02-23T12:38:44;2.17;;;1.77;;
15049;SDS011;7622;42.724;23.250;2024-02-23T12:41:11;2.00;;;1.90;;
15049;SDS011;7622;42.724;23.250;2024-02-23T12:43:39;2.40;;;2.00;;
15049;SDS011;7622;42.724;23.250;2024-02-23T12:46:05;2.37;;;1.97;;
15049;SDS011;7622;42.724;23.250;2024-02-23T12:48:35;2.63;;;1.90;;
15049;SDS011;7622;42.724;23.250;2024-02-23T12:51:02;2.20;;;2.10;;
15049;SDS011;7622;42.724;23.250;2024-02-23T12:53:32;4.87;;;1.70;;
15049;SDS011;7622;42.724;23.250;2024-02-23T12:56:01;1.90;;;1.70;;
15049;SDS011;7622;42.724;23.250;2024-02-23T12:58:28;3.23;;;2.20;;
15049;SDS011;7622;42.724;23.250;2024-02-23T13:00:55;2.17;;;2.00;;
15049;SDS011;7622;42.724;23.250;2024-02-23T13:03:23;2.20;;;2.00;;
15049;SDS011;7622;42.724;23.250;2024-02-23T13:05:51;3.33;;;1.90;;
15049;SDS011;7622;42.724;23.250;2024-02-23T13:08:18;2.47;;;1.70;;
15049;SDS011;7622;42.724;23.250;2024-02-23T13:10:45;2.27;;;1.80;;
15049;SDS011;7622;42.724;23.250;2024-02-23T13:13:12;3.03;;;1.90;;
15049;SDS011;7622;42.724;23.250;2024-02-23T13:15:40;4.27;;;2.03;;
15049;SDS011;7622;42.724;23.250;2024-02-23T13:18:06;1.77;;;1.67;;
15049;SDS011;7622;42.724;23.250;2024-02-23T13:20:33;2.10;;;2.00;;
15049;SDS011;7622;42.724;23.250;2024-02-23T13:23:02;2.80;;;1.60;;
15049;SDS011;7622;42.724;23.250;2024-02-23T13:25:29;3.57;;;1.70;;
15049;SDS011;7622;42.724;23.250;2024-02-23T13:27:55;3.13;;;2.10;;
15049;SDS011;7622;42.724;23.250;2024-02-23T13:30:22;2.37;;;2.17;;
15049;SDS011;7622;42.724;23.250;2024-02-23T13:32:49;4.80;;;2.20;;
15049;SDS011;7622;42.724;23.250;2024-02-23T13:35:16;2.10;;;2.00;;
15049;SDS011;7622;42.724;23.250;2024-02-23T13:37:43;3.53;;;2.03;;
15049;SDS011;7622;42.724;23.250;2024-02-23T13:40:11;2.30;;;2.10;;
15049;SDS011;7622;42.724;23.250;2024-02-23T13:42:38;2.10;;;2.00;;
15049;SDS011;7622;42.724;23.250;2024-02-23T13:45:05;1.83;;;1.73;;
15049;SDS011;7622;42.724;23.250;2024-02-23T13:47:33;4.53;;;2.10;;
15049;SDS011;7622;42.724;23.250;2024-02-23T13:50:01;2.03;;;1.90;;
15049;SDS011;7622;42.724;23.250;2024-02-23T13:52:28;1.90;;;1.80;;
15049;SDS011;7622;42.724;23.250;2024-02-23T13:54:55;2.13;;;2.00;;
15049;SDS011;7622;42.724;23.250;2024-02-23T13:57:23;2.53;;;2.10;;
15049;SDS011;7622;42.724;23.250;2024-02-23T13:59:50;2.50;;;2.10;;
15049;SDS011;7622;42.724;23.250;2024-02-23T14:02:23;1.83;;;1.73;;
15049;SDS011;7622;42.724;23.250;2024-02-23T14:04:51;2.17;;;1.97;;
15049;SDS011;7622;42.724;23.250;2024-02-23T14:07:18;2.77;;;1.93;;
15049;SDS011;7622;42.724;23.250;2024-02-23T14:09:45;2.43;;;2.23;;
15049;SDS011;7622;42.724;23.250;2024-02-23T14:12:12;3.80;;;2.37;;
15049;SDS011;7622;42.724;23.250;2024-02-23T14:14:40;2.27;;;2.17;;
15049;SDS011;7622;42.724;23.250;2024-02-23T14:17:06;2.60;;;2.40;;
15049;SDS011;7622;42.724;23.250;2024-02-23T14:19:33;4.67;;;2.33;;
15049;SDS011;7622;42.724;23.250;2024-02-23T14:22:00;2.20;;;2.10;;
15049;SDS011;7622;42.724;23.250;2024-02-23T14:24:26;4.20;;;1.97;;
15049;SDS011;7622;42.724;23.250;2024-02-23T14:26:53;2.50;;;2.30;;
15049;SDS011;7622;42.724;23.250;2024-02-23T14:29:20;2.33;;;2.20;;
15049;SDS011;7622;42.724;23.250;2024-02-23T14:31:48;2.80;;;2.27;;
15049;SDS011;7622;42.724;23.250;2024-02-23T14:34:15;4.47;;;2.20;;
15049;SDS011;7622;42.724;23.250;2024-02-23T14:36:41;3.33;;;2.80;;
15049;SDS011;7622;42.724;23.250;2024-02-23T14:39:09;2.27;;;2.07;;
15049;SDS011;7622;42.724;23.250;2024-02-23T14:41:37;3.53;;;2.20;;